createdAt,value
2023-05-05T00:00:59.494Z,3.58
2023-05-05T00:03:28.754Z,3.72
2023-05-05T00:05:56.814Z,3.38
2023-05-05T00:08:24.346Z,3.72
2023-05-05T00:10:53.270Z,3.35
2023-05-05T00:13:21.630Z,4.05
2023-05-05T00:15:50.556Z,4.25
2023-05-05T00:18:18.880Z,4.43
2023-05-05T00:20:48.487Z,4.03
2023-05-05T00:23:16.062Z,4.68
2023-05-05T00:25:43.574Z,4.35
2023-05-05T00:28:11.130Z,5.15
2023-05-05T00:30:40.153Z,4.97
2023-05-05T00:33:07.687Z,3.95
2023-05-05T00:35:35.241Z,4.57
2023-05-05T00:38:04.064Z,4.25
2023-05-05T00:40:31.865Z,4.45
2023-05-05T00:42:59.641Z,4.35
2023-05-05T00:45:27.253Z,4.60
2023-05-05T00:47:55.768Z,4.78
2023-05-05T00:50:24.895Z,4.00
2023-05-05T00:52:54.863Z,4.68
2023-05-05T00:55:23.742Z,5.07
2023-05-05T00:57:51.313Z,4.72
2023-05-05T01:00:19.020Z,4.63
2023-05-05T01:02:46.820Z,4.72
2023-05-05T01:05:16.041Z,5.30
2023-05-05T01:07:52.194Z,4.88
2023-05-05T01:10:27.031Z,5.38
2023-05-05T01:13:04.249Z,4.50
2023-05-05T01:15:34.503Z,5.15
2023-05-05T01:18:07.713Z,5.10
2023-05-05T01:20:42.183Z,4.95
2023-05-05T01:23:10.888Z,5.10
2023-05-05T01:25:52.732Z,5.65
2023-05-05T01:28:27.472Z,5.07
2023-05-05T01:31:10.682Z,5.13
2023-05-05T01:33:49.530Z,5.00
2023-05-05T01:36:24.704Z,5.88
2023-05-05T01:38:55.265Z,4.88
2023-05-05T01:41:25.418Z,5.40
2023-05-05T01:43:53.786Z,5.43
2023-05-05T01:46:22.849Z,5.50
2023-05-05T01:48:52.856Z,5.18
2023-05-05T01:51:21.322Z,5.25
2023-05-05T01:53:49.735Z,5.20
2023-05-05T01:56:17.609Z,5.30
2023-05-05T01:58:46.528Z,5.18
2023-05-05T02:01:14.707Z,5.35
2023-05-05T02:03:42.868Z,5.60
2023-05-05T02:06:12.975Z,4.88
2023-05-05T02:08:40.892Z,5.07
2023-05-05T02:11:10.021Z,4.80
2023-05-05T02:13:37.929Z,5.65
2023-05-05T02:16:06.132Z,5.20
2023-05-05T02:18:35.882Z,5.22
2023-05-05T02:21:03.665Z,5.05
2023-05-05T02:23:32.549Z,5.93
2023-05-05T02:26:03.574Z,5.15
2023-05-05T02:28:36.685Z,4.75
2023-05-05T02:31:05.976Z,3.70
2023-05-05T02:33:34.467Z,5.05
2023-05-05T02:36:07.096Z,5.05
2023-05-05T02:38:38.310Z,4.90
2023-05-05T02:41:06.738Z,5.00
2023-05-05T02:43:35.436Z,5.18
2023-05-05T02:46:02.961Z,4.28
2023-05-05T02:48:30.537Z,5.10
2023-05-05T02:50:58.267Z,5.03
2023-05-05T02:53:27.264Z,4.15
2023-05-05T02:56:12.128Z,4.63
2023-05-05T02:58:44.038Z,5.38
2023-05-05T03:01:18.981Z,4.10
2023-05-05T03:03:51.325Z,5.25
2023-05-05T03:06:21.088Z,4.75
2023-05-05T03:08:53.272Z,4.10
2023-05-05T03:11:27.150Z,4.22
2023-05-05T03:14:06.821Z,4.20
2023-05-05T03:16:35.758Z,3.78
2023-05-05T03:19:04.708Z,4.65
2023-05-05T03:21:33.111Z,3.95
2023-05-05T03:24:01.354Z,4.55
2023-05-05T03:26:30.168Z,3.97
2023-05-05T03:28:57.654Z,4.10
2023-05-05T03:31:25.169Z,4.20
2023-05-05T03:33:53.056Z,4.13
2023-05-05T03:36:20.544Z,4.38
2023-05-05T03:38:48.003Z,4.20
2023-05-05T03:41:15.473Z,4.95
2023-05-05T03:43:44.266Z,4.03
2023-05-05T03:46:12.459Z,4.90
2023-05-05T03:48:41.724Z,4.13
2023-05-05T03:51:09.261Z,4.10
2023-05-05T03:53:37.010Z,4.63
2023-05-05T03:56:05.370Z,4.03
2023-05-05T03:58:32.908Z,4.50
2023-05-05T04:01:01.775Z,4.10
2023-05-05T04:03:29.316Z,4.38
2023-05-05T04:05:56.884Z,4.32
2023-05-05T04:08:24.379Z,4.53
2023-05-05T04:10:52.041Z,5.90
2023-05-05T04:13:19.579Z,5.95
2023-05-05T04:15:47.137Z,5.35
2023-05-05T04:18:16.000Z,4.57
2023-05-05T04:20:43.776Z,7.97
2023-05-05T04:23:11.257Z,5.05
2023-05-05T04:25:38.772Z,5.57
2023-05-05T04:28:06.249Z,7.50
2023-05-05T04:30:33.859Z,5.20
2023-05-05T04:33:01.361Z,5.90
2023-05-05T04:35:30.411Z,5.25
2023-05-05T04:37:57.901Z,4.75
2023-05-05T04:40:26.223Z,4.95
2023-05-05T04:42:53.723Z,4.53
2023-05-05T04:45:21.214Z,5.22
2023-05-05T04:47:48.826Z,4.40
2023-05-05T04:50:16.736Z,4.82
2023-05-05T04:52:45.534Z,4.13
2023-05-05T04:55:13.108Z,4.40
2023-05-05T04:57:40.762Z,5.65
2023-05-05T05:00:09.962Z,6.68
2023-05-05T05:02:38.470Z,4.45
2023-05-05T05:05:06.819Z,5.28
2023-05-05T05:07:34.284Z,5.57
2023-05-05T05:10:03.176Z,6.15
2023-05-05T05:12:30.683Z,5.88
2023-05-05T05:14:58.218Z,5.15
2023-05-05T05:17:26.732Z,5.97
2023-05-05T05:19:55.303Z,5.03
2023-05-05T05:22:22.804Z,5.68
2023-05-05T05:24:50.307Z,6.40
2023-05-05T05:27:19.184Z,6.10
2023-05-05T05:29:46.706Z,5.05
2023-05-05T05:32:14.310Z,5.25
2023-05-05T05:34:41.903Z,5.75
2023-05-05T05:37:09.408Z,5.18
2023-05-05T05:39:36.899Z,5.93
2023-05-05T05:42:04.559Z,5.90
2023-05-05T05:44:33.702Z,5.63
2023-05-05T05:47:01.181Z,5.43
2023-05-05T05:49:28.662Z,5.70
2023-05-05T05:51:56.218Z,26.58
2023-05-05T05:54:23.758Z,6.93
2023-05-05T05:56:51.230Z,6.00
2023-05-05T05:59:18.722Z,6.13
2023-05-05T06:01:47.588Z,6.30
2023-05-05T06:04:15.148Z,5.57
2023-05-05T06:06:42.673Z,5.40
2023-05-05T06:09:10.168Z,6.43
2023-05-05T06:11:37.700Z,5.82
2023-05-05T06:14:05.209Z,5.93
2023-05-05T06:16:33.228Z,5.43
2023-05-05T06:19:02.222Z,6.32
2023-05-05T06:21:29.836Z,5.80
2023-05-05T06:23:57.384Z,6.93
2023-05-05T06:26:24.986Z,5.57
2023-05-05T06:28:52.521Z,5.05
2023-05-05T06:31:20.038Z,6.05
2023-05-05T06:33:47.601Z,6.32
2023-05-05T06:36:16.502Z,6.03
2023-05-05T06:38:44.068Z,6.50
2023-05-05T06:41:11.554Z,6.05
2023-05-05T06:43:39.562Z,6.45
2023-05-05T06:46:07.042Z,5.85
2023-05-05T06:48:34.521Z,5.85
2023-05-05T06:51:03.059Z,6.57
2023-05-05T06:53:31.901Z,5.32
2023-05-05T06:55:59.396Z,6.30
2023-05-05T06:58:27.118Z,6.82
2023-05-05T07:00:54.971Z,5.45
2023-05-05T07:03:22.508Z,6.30
2023-05-05T07:05:50.186Z,5.95
2023-05-05T07:08:17.662Z,7.07
2023-05-05T07:10:47.130Z,6.40
2023-05-05T07:13:16.974Z,6.80
2023-05-05T07:15:46.424Z,6.35
2023-05-05T07:18:14.227Z,5.43
2023-05-05T07:20:42.237Z,6.93
2023-05-05T07:23:09.785Z,6.20
2023-05-05T07:25:37.264Z,6.35
2023-05-05T07:28:06.411Z,6.13
2023-05-05T07:30:33.969Z,7.07
2023-05-05T07:33:01.574Z,5.30
2023-05-05T07:35:29.530Z,6.28
2023-05-05T07:37:57.082Z,6.55
2023-05-05T07:40:24.608Z,5.63
2023-05-05T07:42:52.202Z,6.30
2023-05-05T07:45:21.091Z,6.13
2023-05-05T07:47:48.611Z,6.40
2023-05-05T07:50:16.290Z,5.82
2023-05-05T07:52:49.871Z,5.97
2023-05-05T07:55:21.565Z,6.05
2023-05-05T07:57:49.627Z,6.43
2023-05-05T08:00:19.355Z,5.88
2023-05-05T08:02:48.756Z,5.95
2023-05-05T08:05:16.500Z,6.10
2023-05-05T08:07:44.063Z,6.25
2023-05-05T08:10:12.561Z,6.40
2023-05-05T08:12:40.632Z,5.60
2023-05-05T08:15:09.352Z,5.65
2023-05-05T08:17:52.194Z,5.60
2023-05-05T08:22:48.324Z,5.90
2023-05-05T08:25:15.889Z,5.90
2023-05-05T08:27:44.050Z,6.00
2023-05-05T08:30:12.379Z,6.00
2023-05-05T08:32:39.957Z,5.20
2023-05-05T08:35:09.688Z,7.55
2023-05-05T08:37:37.440Z,5.32
2023-05-05T08:40:05.830Z,6.30
2023-05-05T08:42:37.766Z,5.70
2023-05-05T08:47:34.461Z,5.80
2023-05-05T08:50:02.362Z,5.30
2023-05-05T08:52:37.369Z,5.88
2023-05-05T08:55:13.936Z,4.97
2023-05-05T08:57:46.606Z,5.75
2023-05-05T09:00:15.158Z,5.28
2023-05-05T09:02:43.904Z,6.28
2023-05-05T09:05:11.693Z,4.88
2023-05-05T09:07:41.398Z,6.05
2023-05-05T09:10:10.531Z,4.00
2023-05-05T09:12:40.347Z,4.60
2023-05-05T09:15:09.670Z,5.22
2023-05-05T09:17:37.516Z,5.10
2023-05-05T09:20:07.192Z,4.15
2023-05-05T09:22:40.511Z,3.50
2023-05-05T09:25:10.456Z,3.63
2023-05-05T09:27:39.284Z,5.32
2023-05-05T09:30:07.953Z,4.72
2023-05-05T09:32:47.535Z,4.40
2023-05-05T09:35:15.714Z,4.40
2023-05-05T09:37:44.871Z,3.60
2023-05-05T09:40:14.272Z,3.92
2023-05-05T09:42:42.107Z,3.47
2023-05-05T09:45:27.283Z,3.35
2023-05-05T09:47:59.566Z,3.15
2023-05-05T09:50:30.459Z,3.88
2023-05-05T09:53:00.848Z,3.28
2023-05-05T09:55:28.428Z,4.28
2023-05-05T09:57:56.157Z,4.43
2023-05-05T10:00:24.387Z,12.10
2023-05-05T10:02:51.974Z,4.53
2023-05-05T10:05:20.137Z,3.58
2023-05-05T10:07:48.497Z,3.40
2023-05-05T10:10:18.146Z,4.88
2023-05-05T10:12:47.260Z,4.85
2023-05-05T10:15:16.510Z,3.63
2023-05-05T10:18:02.412Z,2.83
2023-05-05T10:20:34.269Z,3.47
2023-05-05T10:23:03.497Z,4.47
2023-05-05T10:25:41.263Z,4.38
2023-05-05T10:28:11.198Z,4.97
2023-05-05T10:30:44.312Z,3.90
2023-05-05T10:33:30.322Z,4.15
2023-05-05T10:36:01.925Z,4.03
2023-05-05T10:38:30.026Z,4.00
2023-05-05T10:40:59.056Z,4.20
2023-05-05T10:43:26.872Z,3.90
2023-05-05T10:45:54.807Z,4.07
2023-05-05T10:48:28.743Z,4.13
2023-05-05T10:51:00.623Z,3.75
2023-05-05T10:53:30.181Z,4.13
2023-05-05T10:56:04.411Z,2.67
2023-05-05T10:58:44.089Z,2.50
2023-05-05T11:01:29.882Z,4.20
2023-05-05T11:04:22.546Z,10.20
2023-05-05T11:07:27.440Z,2.97
2023-05-05T11:09:56.627Z,3.33
2023-05-05T11:12:25.737Z,3.17
2023-05-05T11:15:30.585Z,3.47
2023-05-05T11:17:58.953Z,3.80
2023-05-05T11:21:04.046Z,2.70
2023-05-05T11:23:31.904Z,3.05
2023-05-05T11:25:59.969Z,3.17
2023-05-05T11:28:31.140Z,3.60
2023-05-05T11:31:18.512Z,3.67
2023-05-05T11:33:46.113Z,3.20
2023-05-05T11:36:14.387Z,4.35
2023-05-05T11:38:53.777Z,3.10
2023-05-05T11:41:31.972Z,3.20
2023-05-05T11:44:14.748Z,2.33
2023-05-05T11:47:02.734Z,3.20
2023-05-05T11:49:32.556Z,2.47
2023-05-05T11:52:00.940Z,2.63
2023-05-05T11:54:29.079Z,2.72
2023-05-05T11:56:58.825Z,3.47
2023-05-05T11:59:26.510Z,2.95
2023-05-05T12:01:54.163Z,2.30
2023-05-05T12:04:21.761Z,3.05
2023-05-05T12:06:50.764Z,3.45
2023-05-05T12:09:19.734Z,3.42
2023-05-05T12:11:50.562Z,2.83
2023-05-05T12:14:18.085Z,3.50
2023-05-05T12:16:55.059Z,2.63
2023-05-05T12:19:22.628Z,2.42
2023-05-05T12:21:54.165Z,2.72
2023-05-05T12:24:21.911Z,2.88
2023-05-05T12:26:49.436Z,3.00
2023-05-05T12:29:24.922Z,2.75
2023-05-05T12:31:52.510Z,2.55
2023-05-05T12:34:20.383Z,2.60
2023-05-05T12:36:48.229Z,3.15
2023-05-05T12:39:17.056Z,3.13
2023-05-05T12:41:44.736Z,2.90
2023-05-05T12:44:12.234Z,2.63
2023-05-05T12:46:46.181Z,2.92
2023-05-05T12:49:13.703Z,2.90
2023-05-05T12:51:53.698Z,3.50
2023-05-05T12:54:23.756Z,2.85
2023-05-05T12:56:51.345Z,2.92
2023-05-05T12:59:31.313Z,2.45
2023-05-05T13:02:01.417Z,2.80
2023-05-05T13:04:29.613Z,3.13
2023-05-05T13:07:11.094Z,3.63
2023-05-05T13:09:40.089Z,3.03
2023-05-05T13:12:08.537Z,3.17
2023-05-05T13:14:36.345Z,2.88
2023-05-05T13:17:03.890Z,3.67
2023-05-05T13:19:31.717Z,3.00
2023-05-05T13:21:59.836Z,2.92
2023-05-05T13:24:42.345Z,2.97
2023-05-05T13:27:16.406Z,2.90
2023-05-05T13:29:47.031Z,5.18
2023-05-05T13:32:14.518Z,10.60
2023-05-05T13:34:42.600Z,4.50
2023-05-05T13:37:10.207Z,3.20
2023-05-05T13:39:37.863Z,4.00
2023-05-05T13:42:05.638Z,5.13
2023-05-05T13:44:35.314Z,4.43
2023-05-05T13:47:03.081Z,4.68
2023-05-05T13:49:30.605Z,3.35
2023-05-05T13:51:58.525Z,4.10
2023-05-05T13:54:26.060Z,3.65
2023-05-05T13:56:53.558Z,3.45
2023-05-05T13:59:21.785Z,3.78
2023-05-05T14:01:50.708Z,3.20
2023-05-05T14:04:18.295Z,2.92
2023-05-05T14:06:45.872Z,3.50
2023-05-05T14:09:13.371Z,2.72
2023-05-05T14:11:41.086Z,2.97
2023-05-05T14:14:08.667Z,3.10
2023-05-05T14:16:36.309Z,2.92
2023-05-05T14:19:05.331Z,2.80
2023-05-05T14:21:33.493Z,2.55
2023-05-05T14:24:00.980Z,2.92
2023-05-05T14:26:29.147Z,2.63
2023-05-05T14:28:56.625Z,3.20
2023-05-05T14:31:24.208Z,3.15
2023-05-05T14:33:51.735Z,2.45
2023-05-05T14:36:20.631Z,2.70
2023-05-05T14:38:48.144Z,3.15
2023-05-05T14:41:15.650Z,2.85
2023-05-05T14:43:43.126Z,3.42
2023-05-05T14:46:10.721Z,2.35
2023-05-05T14:48:38.348Z,2.97
2023-05-05T14:51:06.353Z,2.63
2023-05-05T14:53:35.788Z,2.55
2023-05-05T14:56:03.352Z,2.45
2023-05-05T14:58:31.057Z,2.75
2023-05-05T15:00:58.941Z,2.58
2023-05-05T15:03:26.613Z,2.55
2023-05-05T15:05:54.172Z,2.88
2023-05-05T15:08:22.041Z,2.60
2023-05-05T15:10:50.879Z,2.38
2023-05-05T15:13:18.627Z,2.60
2023-05-05T15:15:46.325Z,2.72
2023-05-05T15:18:13.856Z,2.78
2023-05-05T15:20:41.406Z,2.83
2023-05-05T15:23:08.890Z,3.28
2023-05-05T15:25:36.542Z,4.95
2023-05-05T15:28:05.426Z,5.35
2023-05-05T15:30:33.173Z,4.93
2023-05-05T15:33:00.721Z,6.53
2023-05-05T15:35:28.267Z,3.88
2023-05-05T15:37:55.908Z,5.72
2023-05-05T15:40:23.818Z,4.30
2023-05-05T15:42:51.526Z,3.58
2023-05-05T15:45:20.395Z,3.70
2023-05-05T15:47:48.012Z,3.90
2023-05-05T15:50:16.112Z,3.35
2023-05-05T15:52:43.697Z,3.42
2023-05-05T15:55:11.529Z,3.00
2023-05-05T15:57:40.360Z,2.90
2023-05-05T16:00:09.284Z,3.30
2023-05-05T16:02:38.224Z,3.13
2023-05-05T16:05:06.842Z,3.45
2023-05-05T16:07:34.579Z,2.75
2023-05-05T16:10:02.100Z,3.38
2023-05-05T16:12:29.686Z,2.95
2023-05-05T16:14:57.228Z,3.17
2023-05-05T16:17:24.802Z,3.13
2023-05-05T16:19:53.722Z,3.30
2023-05-05T16:22:21.778Z,3.10
2023-05-05T16:24:49.273Z,3.40
2023-05-05T16:27:16.753Z,3.28
2023-05-05T16:29:44.262Z,3.40
2023-05-05T16:32:11.742Z,3.40
2023-05-05T16:34:39.257Z,3.30
2023-05-05T16:37:08.095Z,3.47
2023-05-05T16:39:40.107Z,3.45
2023-05-05T16:42:07.781Z,3.25
2023-05-05T16:44:35.295Z,3.05
2023-05-05T16:47:02.821Z,2.97
2023-05-05T16:49:30.380Z,3.10
2023-05-05T16:51:58.218Z,3.00
2023-05-05T16:54:27.079Z,3.10
2023-05-05T16:56:54.926Z,2.80
2023-05-05T16:59:22.459Z,3.15
2023-05-05T17:01:49.954Z,3.15
2023-05-05T17:04:17.435Z,3.33
2023-05-05T17:06:44.971Z,3.60
2023-05-05T17:09:12.554Z,2.85
2023-05-05T17:11:41.398Z,3.45
2023-05-05T17:14:08.903Z,3.45
2023-05-05T17:16:36.792Z,3.65
2023-05-05T17:19:04.312Z,3.17
2023-05-05T17:21:32.812Z,3.47
2023-05-05T17:24:01.347Z,3.28
2023-05-05T17:26:28.834Z,3.63
2023-05-05T17:28:57.635Z,3.47
2023-05-05T17:31:25.227Z,3.63
2023-05-05T17:33:52.736Z,3.47
2023-05-05T17:36:20.238Z,3.92
2023-05-05T17:38:47.765Z,3.50
2023-05-05T17:41:15.265Z,3.70
2023-05-05T17:43:42.767Z,3.70
2023-05-05T17:46:11.821Z,4.75
2023-05-05T17:48:39.362Z,3.60
2023-05-05T17:51:06.881Z,4.10
2023-05-05T17:53:34.437Z,4.20
2023-05-05T17:56:01.958Z,4.57
2023-05-05T17:58:29.497Z,4.70
2023-05-05T18:00:57.048Z,3.90
2023-05-05T18:03:26.190Z,4.72
2023-05-05T18:05:53.937Z,4.75
2023-05-05T18:08:21.444Z,5.47
2023-05-05T18:10:48.988Z,5.47
2023-05-05T18:13:16.528Z,5.25
2023-05-05T18:15:44.132Z,11.93
2023-05-05T18:18:11.679Z,18.30
2023-05-05T18:20:40.989Z,9.57
2023-05-05T18:23:08.637Z,7.47
2023-05-05T18:25:36.145Z,6.30
2023-05-05T18:28:03.698Z,5.55
2023-05-05T18:30:31.421Z,6.20
2023-05-05T18:32:58.965Z,5.85
2023-05-05T18:35:26.839Z,5.40
2023-05-05T18:37:56.988Z,5.72
2023-05-05T18:40:24.516Z,6.63
2023-05-05T18:42:52.038Z,5.50
2023-05-05T18:45:19.645Z,7.05
2023-05-05T18:47:47.501Z,7.25
2023-05-05T18:50:15.054Z,8.52
2023-05-05T18:52:42.549Z,8.38
2023-05-05T18:55:11.616Z,8.00
2023-05-05T18:57:39.222Z,8.30
2023-05-05T19:00:08.063Z,8.10
2023-05-05T19:02:35.582Z,7.95
2023-05-05T19:05:03.792Z,8.65
2023-05-05T19:07:35.441Z,7.75
2023-05-05T19:10:05.098Z,7.28
2023-05-05T19:12:33.983Z,8.73
2023-05-05T19:15:01.500Z,10.00
2023-05-05T19:17:29.009Z,9.00
2023-05-05T19:19:56.628Z,9.88
2023-05-05T19:22:24.203Z,9.43
2023-05-05T19:24:51.753Z,9.60
2023-05-05T19:27:19.253Z,10.30
2023-05-05T19:29:51.951Z,10.35
2023-05-05T19:32:20.195Z,11.73
2023-05-05T19:34:47.890Z,10.82
2023-05-05T19:37:15.399Z,11.68
2023-05-05T19:39:44.264Z,11.13
2023-05-05T19:42:11.918Z,12.65
2023-05-05T19:44:39.428Z,11.77
2023-05-05T19:47:09.004Z,11.55
2023-05-05T19:49:37.834Z,12.10
2023-05-05T19:52:05.670Z,12.82
2023-05-05T19:54:33.168Z,11.95
2023-05-05T19:57:00.718Z,17.05
2023-05-05T19:59:28.513Z,15.38
2023-05-05T20:01:56.075Z,11.15
2023-05-05T20:04:24.917Z,11.38
2023-05-05T20:06:52.638Z,11.50
2023-05-05T20:09:20.128Z,12.98
2023-05-05T20:11:47.615Z,11.48
2023-05-05T20:14:15.106Z,11.65
2023-05-05T20:16:42.576Z,11.75
2023-05-05T20:19:10.062Z,13.23
2023-05-05T20:21:38.863Z,11.63
2023-05-05T20:24:07.406Z,11.20
2023-05-05T20:26:35.031Z,12.05
2023-05-05T20:29:02.493Z,11.90
2023-05-05T20:31:30.085Z,11.15
2023-05-05T20:33:57.605Z,11.55
2023-05-05T20:36:26.712Z,12.13
2023-05-05T20:38:55.578Z,11.68
2023-05-05T20:41:23.071Z,10.85
2023-05-05T20:43:50.645Z,11.50
2023-05-05T20:46:18.182Z,11.68
2023-05-05T20:48:45.796Z,8.23
2023-05-05T20:51:13.308Z,10.20
2023-05-05T20:53:40.822Z,7.30
2023-05-05T20:56:09.630Z,9.75
2023-05-05T20:58:37.187Z,8.27
2023-05-05T21:01:04.863Z,9.32
2023-05-05T21:03:32.489Z,9.25
2023-05-05T21:06:00.004Z,8.75
2023-05-05T21:08:27.510Z,7.50
2023-05-05T21:10:55.008Z,7.45
2023-05-05T21:13:23.834Z,9.02
2023-05-05T21:15:51.352Z,6.30
2023-05-05T21:18:18.862Z,6.65
2023-05-05T21:20:46.503Z,6.00
2023-05-05T21:23:13.966Z,8.85
2023-05-05T21:25:41.473Z,5.95
2023-05-05T21:28:08.987Z,9.40
2023-05-05T21:30:38.002Z,6.32
2023-05-05T21:33:05.753Z,6.20
2023-05-05T21:35:33.311Z,5.50
2023-05-05T21:38:00.801Z,5.85
2023-05-05T21:40:28.334Z,7.53
2023-05-05T21:42:55.801Z,9.27
2023-05-05T21:45:23.536Z,7.95
2023-05-05T21:47:52.416Z,8.57
2023-05-05T21:50:20.212Z,7.53
2023-05-05T21:52:47.720Z,8.95
2023-05-05T21:55:15.496Z,8.55
2023-05-05T21:57:42.972Z,6.60
2023-05-05T22:00:16.558Z,7.60
2023-05-05T22:02:44.189Z,9.25
2023-05-05T22:05:13.147Z,9.55
2023-05-05T22:07:40.733Z,9.38
2023-05-05T22:10:09.423Z,7.15
2023-05-05T22:12:37.122Z,9.23
2023-05-05T22:15:05.258Z,6.72
2023-05-05T22:17:32.859Z,9.05
2023-05-05T22:20:00.435Z,8.77
2023-05-05T22:22:29.259Z,9.43
2023-05-05T22:24:56.751Z,9.45
2023-05-05T22:27:24.849Z,7.15
2023-05-05T22:29:52.342Z,7.38
2023-05-05T22:32:20.408Z,5.53
2023-05-05T22:34:47.919Z,8.98
2023-05-05T22:37:15.404Z,6.47
2023-05-05T22:39:44.205Z,9.18
2023-05-05T22:42:11.720Z,8.68
2023-05-05T22:44:39.364Z,9.30
2023-05-05T22:47:06.980Z,7.15
2023-05-05T22:49:34.977Z,9.73
2023-05-05T22:52:03.499Z,8.68
2023-05-05T22:54:31.005Z,8.90
2023-05-05T22:56:59.807Z,9.88
2023-05-05T22:59:27.306Z,7.88
2023-05-05T23:01:54.793Z,10.38
2023-05-05T23:04:22.343Z,7.10
2023-05-05T23:06:49.889Z,10.02
2023-05-05T23:09:17.497Z,8.88
2023-05-05T23:11:45.010Z,7.57
2023-05-05T23:14:13.815Z,10.82
2023-05-05T23:16:41.380Z,8.43
2023-05-05T23:19:08.949Z,10.35
2023-05-05T23:21:49.205Z,9.85
2023-05-05T23:24:19.893Z,7.95
2023-05-05T23:26:47.396Z,10.52
2023-05-05T23:29:16.226Z,10.73
2023-05-05T23:31:43.735Z,10.10
2023-05-05T23:34:11.316Z,9.15
2023-05-05T23:36:38.816Z,11.07
2023-05-05T23:39:06.345Z,10.32
2023-05-05T23:41:33.890Z,10.98
2023-05-05T23:44:01.356Z,10.15
2023-05-05T23:46:30.487Z,11.18
2023-05-05T23:48:58.086Z,10.18
2023-05-05T23:51:27.197Z,11.27
2023-05-05T23:53:54.764Z,10.80
2023-05-05T23:56:22.234Z,10.73
2023-05-05T23:58:49.725Z,11.35
